Decoded Metar for UKBB (KIEV in UKRAINE) (IATA:KBP) | Meteo·Mobile Aviation Weather
aviador You're here:

UKBB Decoded Metar

KIEV in UKRAINE
Report Time2018-11-19 05:00:00
UTC Time2018-11-19 05:30:13
Flight Rules mvfr MVFR
Wind050° at 6 kt
W.Decomp.*RWY 36: 4.2 kt HW 4.2 kt RCW
W.Rank050° ranks 29
Current wind is below 050° avg. (6.7)
Visibility7000 m
Phenomena:N/A
Clouds:N/A
Expected CloudBase > 400 ft AGL from Temp-Dew spread
CeilingNone
Temp-5°C (ISA -19)
Dew Point-6°C (93% RH)
AAT-9.9°C
QNH1024 hPa
Density Alt-2,306 ft
Elevation390 ft
Report Wrong Elevation
Raw Report
METAR UKBB 190500Z 05003MPS 7000 NSC M05/M06 Q1024 R88/190050 NOSIG=

Extra information for UKBB:More info

Metar Taf Metar & Taf Last 4 Metars F.Rules Stats Wind Profile Meteogram Temp Stats Airport Information Weather charts Add Link Nearby VenuesMetar ALERT Operation Metar Decoded Social comments